MMMXMMCP

Guest
Details From MMMX - Licenciado Benito Juarez Intl
To MMCP - Ingeniero Alberto Acuna Ongay Intl
Flight Number -
Tags Generated
Created
Modified
Stats Distance 487 nm / 901 km
Max Altitude 0 ft / 0 m
Waypoints 3
Social Downloads 2
Likes 0
Share VATSIM

Download

Looking for another format? Having issues loading an existing format? Contact us
Advertisement - Login to hide

Notes

Generated

Route

MMMX OMPAN MMCP

ID Type Via Altitude Latitude Longitude Leg Dist Tot Dist Heading (true) Name
O MMMX APT - 0 ft / 0 m 19.42701˚ -99.08585˚ - 0 nm - -
OMPAN FIX - 0 ft / 0 m 19.49079˚ -95.00000˚ 231 nm 231 nm 88° / 90° -
O MMCP APT - 0 ft / 0 m 19.82779˚ -90.50318˚ 255 nm 486 nm 85° / 86° -

Altitude Profile

Advertisement - Login to hide

Weather


0- 5 10 15 20 25 30 35+ Temperature / ° C

Clouds and Precipitation
Forecast for 2018-05-24 00:00 UTC. Updated 6 hours ago

Ground ~20,000 ft ~40,000 ft Winds

MMMX

Details ICAO MMMX (MEX)
Name Licenciado Benito Juarez Intl
Region Mexico
Timezone America/Mexico_City (UTC-5.0)
Stats Elevation 7,316 ft / 2,230 m (AMSL)
Location 19.436308° -99.072104°
Runways 2
Magnetic Variation 4.598° E

METAR

MMMX 240347Z 08006KT 12SM OVC200 21/05 A3033 NOSIG RMK 8/007 AC

Decode

TAF

TAF MMMX 232322Z 2400/2506 10012G22KT 6SM VC RA BKN020CB BKN080 TX27/2421Z TN14/2412Z TEMPO 2400/2402 5SM TSRA FM240300 04010KT P6SM SCT020 BKN080 FM240600 00000KT P6SM SKC FM241400 00000KT 4SM HZ SKC FM242100 02010KT P6SM BKN025 PROB40 2423/2503 5SM TSRA BKN020CB

Decode

Departure Runways

ID Width Length Bearing (true) Bearing (mag) Surface Threshold Offset Overrun Length
05L 148 ft / 45 m 12,951 ft / 3,948 m 59.25° 54.65° Asphalt 1,033 ft / 315 m 0 ft / 0 m
05R 148 ft / 45 m 12,800 ft / 3,902 m 59.26° 54.66° Asphalt 1,493 ft / 455 m 0 ft / 0 m
23L 148 ft / 45 m 12,800 ft / 3,902 m 239.28° 234.68° Asphalt 0 ft / 0 m 200 ft / 61 m
23R 148 ft / 45 m 12,951 ft / 3,948 m 239.27° 234.67° Asphalt 1,640 ft / 500 m 0 ft / 0 m

MMCP

Details ICAO MMCP (CPE)
Name INGENIERO ALBERTO ACUNA ONGAY INTL
Region Mexico
Timezone America/Merida (UTC-5.0)
Stats Elevation 34 ft / 10 m (AMSL)
Location 19.816795° -90.500314°
Runways 1
Magnetic Variation 0.335° E

METAR

Not found

TAF

TAF MMCP 231713Z 2318/2418 34015KT P6SM SCT015 FM232100 02015KT P6SM BKN015CB OVC070 TEMPO 2322/2402 3SM TSRA FM240400 06010KT P6SM FM241000 00000KT 5SM HZ SCT010 SCT070 FM241500 10010KT P6SM SCT020 SCT080

Decode

Destination Runways

ID Width Length Bearing (true) Bearing (mag) Surface Threshold Offset Overrun Length
16 148 ft / 45 m 8,264 ft / 2,519 m 166.22° 165.88° Asphalt 0 ft / 0 m 0 ft / 0 m
34 148 ft / 45 m 8,264 ft / 2,519 m 346.22° 345.88° Asphalt 0 ft / 0 m 160 ft / 49 m

Popular Alternatives